sensor_id;sensor_type;location;lat;lon;timestamp;P1;durP1;ratioP1;P2;durP2;ratioP2
85081;SDS011;75424;50.762;7.178;2024-01-06T00:00:56;1.85;;;1.20;;
85081;SDS011;75424;50.762;7.178;2024-01-06T00:03:21;2.10;;;1.20;;
85081;SDS011;75424;50.762;7.178;2024-01-06T00:05:46;2.80;;;1.30;;
85081;SDS011;75424;50.762;7.178;2024-01-06T00:08:11;2.25;;;1.27;;
85081;SDS011;75424;50.762;7.178;2024-01-06T00:10:37;1.60;;;1.40;;
85081;SDS011;75424;50.762;7.178;2024-01-06T00:13:02;2.73;;;1.10;;
85081;SDS011;75424;50.762;7.178;2024-01-06T00:15:27;2.40;;;1.00;;
85081;SDS011;75424;50.762;7.178;2024-01-06T00:17:53;2.30;;;0.90;;
85081;SDS011;75424;50.762;7.178;2024-01-06T00:20:18;1.27;;;1.17;;
85081;SDS011;75424;50.762;7.178;2024-01-06T00:22:43;1.15;;;1.05;;
85081;SDS011;75424;50.762;7.178;2024-01-06T00:25:09;1.58;;;0.82;;
85081;SDS011;75424;50.762;7.178;2024-01-06T00:27:34;1.30;;;1.20;;
85081;SDS011;75424;50.762;7.178;2024-01-06T00:30:00;2.50;;;1.00;;
85081;SDS011;75424;50.762;7.178;2024-01-06T00:32:25;1.00;;;0.93;;
85081;SDS011;75424;50.762;7.178;2024-01-06T00:34:50;2.47;;;1.03;;
85081;SDS011;75424;50.762;7.178;2024-01-06T00:37:15;2.70;;;1.17;;
85081;SDS011;75424;50.762;7.178;2024-01-06T00:39:41;2.80;;;0.98;;
85081;SDS011;75424;50.762;7.178;2024-01-06T00:42:06;1.83;;;0.95;;
85081;SDS011;75424;50.762;7.178;2024-01-06T00:44:33;1.85;;;1.00;;
85081;SDS011;75424;50.762;7.178;2024-01-06T00:47:01;1.73;;;0.95;;
85081;SDS011;75424;50.762;7.178;2024-01-06T00:49:26;1.77;;;1.17;;
85081;SDS011;75424;50.762;7.178;2024-01-06T00:51:51;1.35;;;1.02;;
85081;SDS011;75424;50.762;7.178;2024-01-06T00:54:17;2.28;;;1.20;;
85081;SDS011;75424;50.762;7.178;2024-01-06T00:56:42;2.20;;;1.37;;
85081;SDS011;75424;50.762;7.178;2024-01-06T00:59:08;1.38;;;1.13;;
85081;SDS011;75424;50.762;7.178;2024-01-06T01:01:33;1.92;;;1.20;;
85081;SDS011;75424;50.762;7.178;2024-01-06T01:03:58;2.00;;;1.30;;
85081;SDS011;75424;50.762;7.178;2024-01-06T01:06:24;1.50;;;1.20;;
85081;SDS011;75424;50.762;7.178;2024-01-06T01:08:49;1.97;;;1.47;;
85081;SDS011;75424;50.762;7.178;2024-01-06T01:11:14;2.17;;;1.50;;
85081;SDS011;75424;50.762;7.178;2024-01-06T01:13:39;3.90;;;1.35;;
85081;SDS011;75424;50.762;7.178;2024-01-06T01:16:05;2.60;;;1.60;;
85081;SDS011;75424;50.762;7.178;2024-01-06T01:18:30;1.75;;;1.38;;
85081;SDS011;75424;50.762;7.178;2024-01-06T01:20:55;1.85;;;1.20;;
85081;SDS011;75424;50.762;7.178;2024-01-06T01:23:21;2.67;;;1.40;;
85081;SDS011;75424;50.762;7.178;2024-01-06T01:25:46;2.83;;;1.77;;
85081;SDS011;75424;50.762;7.178;2024-01-06T01:28:12;3.47;;;1.50;;
85081;SDS011;75424;50.762;7.178;2024-01-06T01:30:38;2.75;;;1.65;;
85081;SDS011;75424;50.762;7.178;2024-01-06T01:33:03;3.37;;;1.60;;
85081;SDS011;75424;50.762;7.178;2024-01-06T01:35:28;1.98;;;1.80;;
85081;SDS011;75424;50.762;7.178;2024-01-06T01:37:54;2.33;;;1.60;;
85081;SDS011;75424;50.762;7.178;2024-01-06T01:40:19;2.45;;;1.88;;
85081;SDS011;75424;50.762;7.178;2024-01-06T01:42:45;2.90;;;2.13;;
85081;SDS011;75424;50.762;7.178;2024-01-06T01:45:10;2.43;;;1.60;;
85081;SDS011;75424;50.762;7.178;2024-01-06T01:47:36;2.63;;;1.70;;
85081;SDS011;75424;50.762;7.178;2024-01-06T01:50:02;2.38;;;1.52;;
85081;SDS011;75424;50.762;7.178;2024-01-06T01:52:28;2.13;;;1.75;;
85081;SDS011;75424;50.762;7.178;2024-01-06T01:54:54;1.70;;;1.50;;
85081;SDS011;75424;50.762;7.178;2024-01-06T01:57:20;2.63;;;1.50;;
85081;SDS011;75424;50.762;7.178;2024-01-06T01:59:49;2.47;;;1.05;;
85081;SDS011;75424;50.762;7.178;2024-01-06T02:02:14;2.65;;;1.35;;
85081;SDS011;75424;50.762;7.178;2024-01-06T02:04:40;2.67;;;1.48;;
85081;SDS011;75424;50.762;7.178;2024-01-06T02:07:06;2.00;;;1.50;;
85081;SDS011;75424;50.762;7.178;2024-01-06T02:09:31;3.90;;;1.33;;
85081;SDS011;75424;50.762;7.178;2024-01-06T02:11:57;2.20;;;1.27;;
85081;SDS011;75424;50.762;7.178;2024-01-06T02:14:23;2.03;;;1.17;;
85081;SDS011;75424;50.762;7.178;2024-01-06T02:16:48;1.55;;;1.02;;
85081;SDS011;75424;50.762;7.178;2024-01-06T02:19:13;1.60;;;1.10;;
85081;SDS011;75424;50.762;7.178;2024-01-06T02:21:42;1.35;;;1.15;;
85081;SDS011;75424;50.762;7.178;2024-01-06T02:24:09;1.50;;;1.30;;
85081;SDS011;75424;50.762;7.178;2024-01-06T02:26:35;1.05;;;0.95;;
85081;SDS011;75424;50.762;7.178;2024-01-06T02:29:00;1.70;;;1.15;;
85081;SDS011;75424;50.762;7.178;2024-01-06T02:31:26;1.55;;;1.20;;
85081;SDS011;75424;50.762;7.178;2024-01-06T02:33:52;1.60;;;1.50;;
85081;SDS011;75424;50.762;7.178;2024-01-06T02:36:17;1.40;;;1.27;;
85081;SDS011;75424;50.762;7.178;2024-01-06T02:38:42;2.05;;;1.38;;
85081;SDS011;75424;50.762;7.178;2024-01-06T02:41:08;2.45;;;1.58;;
85081;SDS011;75424;50.762;7.178;2024-01-06T02:43:33;1.37;;;1.20;;
85081;SDS011;75424;50.762;7.178;2024-01-06T02:45:58;3.35;;;1.70;;
85081;SDS011;75424;50.762;7.178;2024-01-06T02:48:24;2.17;;;1.70;;
85081;SDS011;75424;50.762;7.178;2024-01-06T02:50:49;1.80;;;1.50;;
85081;SDS011;75424;50.762;7.178;2024-01-06T02:53:14;2.85;;;1.80;;
85081;SDS011;75424;50.762;7.178;2024-01-06T02:55:40;2.45;;;2.03;;
85081;SDS011;75424;50.762;7.178;2024-01-06T02:58:05;2.95;;;1.58;;
85081;SDS011;75424;50.762;7.178;2024-01-06T03:00:30;4.47;;;2.67;;
85081;SDS011;75424;50.762;7.178;2024-01-06T03:02:55;3.33;;;2.30;;
85081;SDS011;75424;50.762;7.178;2024-01-06T03:05:21;3.77;;;2.27;;
85081;SDS011;75424;50.762;7.178;2024-01-06T03:07:46;4.47;;;3.10;;
85081;SDS011;75424;50.762;7.178;2024-01-06T03:10:11;4.45;;;3.22;;
85081;SDS011;75424;50.762;7.178;2024-01-06T03:12:37;3.07;;;2.33;;
85081;SDS011;75424;50.762;7.178;2024-01-06T03:15:02;3.33;;;2.93;;
85081;SDS011;75424;50.762;7.178;2024-01-06T03:17:27;4.88;;;2.50;;
85081;SDS011;75424;50.762;7.178;2024-01-06T03:19:53;6.00;;;2.60;;
85081;SDS011;75424;50.762;7.178;2024-01-06T03:22:19;3.67;;;3.00;;
85081;SDS011;75424;50.762;7.178;2024-01-06T03:24:44;5.43;;;3.15;;
85081;SDS011;75424;50.762;7.178;2024-01-06T03:27:10;6.75;;;3.35;;
85081;SDS011;75424;50.762;7.178;2024-01-06T03:29:35;5.33;;;3.13;;
85081;SDS011;75424;50.762;7.178;2024-01-06T03:32:00;5.18;;;3.08;;
85081;SDS011;75424;50.762;7.178;2024-01-06T03:34:26;6.15;;;3.30;;
85081;SDS011;75424;50.762;7.178;2024-01-06T03:36:51;5.57;;;3.53;;
85081;SDS011;75424;50.762;7.178;2024-01-06T03:39:16;5.40;;;3.60;;
85081;SDS011;75424;50.762;7.178;2024-01-06T03:41:41;5.82;;;3.30;;
85081;SDS011;75424;50.762;7.178;2024-01-06T03:44:07;5.60;;;3.65;;
85081;SDS011;75424;50.762;7.178;2024-01-06T03:46:33;6.23;;;3.63;;
85081;SDS011;75424;50.762;7.178;2024-01-06T03:49:00;8.05;;;4.10;;
85081;SDS011;75424;50.762;7.178;2024-01-06T03:51:25;4.97;;;3.30;;
85081;SDS011;75424;50.762;7.178;2024-01-06T03:53:50;7.13;;;3.60;;
85081;SDS011;75424;50.762;7.178;2024-01-06T03:56:15;6.37;;;3.90;;
85081;SDS011;75424;50.762;7.178;2024-01-06T03:58:41;6.32;;;3.70;;
85081;SDS011;75424;50.762;7.178;2024-01-06T04:01:06;6.73;;;4.13;;
85081;SDS011;75424;50.762;7.178;2024-01-06T04:03:31;9.48;;;4.57;;
85081;SDS011;75424;50.762;7.178;2024-01-06T04:05:57;8.70;;;4.00;;
85081;SDS011;75424;50.762;7.178;2024-01-06T04:08:22;6.60;;;4.43;;
85081;SDS011;75424;50.762;7.178;2024-01-06T04:10:47;7.25;;;4.88;;
85081;SDS011;75424;50.762;7.178;2024-01-06T04:13:13;8.15;;;4.43;;
85081;SDS011;75424;50.762;7.178;2024-01-06T04:15:39;6.82;;;4.00;;
85081;SDS011;75424;50.762;7.178;2024-01-06T04:18:05;7.63;;;3.65;;
85081;SDS011;75424;50.762;7.178;2024-01-06T04:20:31;6.60;;;3.75;;
85081;SDS011;75424;50.762;7.178;2024-01-06T04:22:57;6.95;;;3.70;;
85081;SDS011;75424;50.762;7.178;2024-01-06T04:25:22;7.30;;;4.05;;
85081;SDS011;75424;50.762;7.178;2024-01-06T04:27:47;6.50;;;4.32;;
85081;SDS011;75424;50.762;7.178;2024-01-06T04:30:13;6.97;;;3.67;;
85081;SDS011;75424;50.762;7.178;2024-01-06T04:32:39;7.72;;;4.35;;
85081;SDS011;75424;50.762;7.178;2024-01-06T04:35:05;10.25;;;5.15;;
85081;SDS011;75424;50.762;7.178;2024-01-06T04:37:30;8.05;;;4.28;;
85081;SDS011;75424;50.762;7.178;2024-01-06T04:39:56;8.13;;;4.03;;
85081;SDS011;75424;50.762;7.178;2024-01-06T04:42:22;8.93;;;4.53;;
85081;SDS011;75424;50.762;7.178;2024-01-06T04:44:48;8.55;;;4.72;;
85081;SDS011;75424;50.762;7.178;2024-01-06T04:47:14;7.32;;;4.47;;
85081;SDS011;75424;50.762;7.178;2024-01-06T04:49:39;9.63;;;4.77;;
85081;SDS011;75424;50.762;7.178;2024-01-06T04:52:04;8.10;;;4.75;;
85081;SDS011;75424;50.762;7.178;2024-01-06T04:54:30;8.88;;;5.18;;
85081;SDS011;75424;50.762;7.178;2024-01-06T04:56:55;10.20;;;5.13;;
85081;SDS011;75424;50.762;7.178;2024-01-06T04:59:21;11.20;;;5.07;;
85081;SDS011;75424;50.762;7.178;2024-01-06T05:01:46;9.57;;;5.72;;
85081;SDS011;75424;50.762;7.178;2024-01-06T05:04:12;11.13;;;5.90;;
85081;SDS011;75424;50.762;7.178;2024-01-06T05:06:37;9.93;;;5.22;;
85081;SDS011;75424;50.762;7.178;2024-01-06T05:09:02;10.32;;;5.13;;
85081;SDS011;75424;50.762;7.178;2024-01-06T05:11:28;9.40;;;4.90;;
85081;SDS011;75424;50.762;7.178;2024-01-06T05:13:54;11.43;;;5.80;;
85081;SDS011;75424;50.762;7.178;2024-01-06T05:16:19;10.85;;;5.70;;
85081;SDS011;75424;50.762;7.178;2024-01-06T05:18:45;11.75;;;5.72;;
85081;SDS011;75424;50.762;7.178;2024-01-06T05:21:10;11.90;;;6.45;;
85081;SDS011;75424;50.762;7.178;2024-01-06T05:23:35;11.63;;;5.97;;
85081;SDS011;75424;50.762;7.178;2024-01-06T05:26:01;14.45;;;6.45;;
85081;SDS011;75424;50.762;7.178;2024-01-06T05:28:26;13.85;;;7.18;;
85081;SDS011;75424;50.762;7.178;2024-01-06T05:30:51;13.83;;;7.03;;
85081;SDS011;75424;50.762;7.178;2024-01-06T05:33:17;15.73;;;6.90;;
85081;SDS011;75424;50.762;7.178;2024-01-06T05:35:42;11.77;;;6.95;;
85081;SDS011;75424;50.762;7.178;2024-01-06T05:38:07;13.25;;;6.70;;
85081;SDS011;75424;50.762;7.178;2024-01-06T05:40:32;12.37;;;6.13;;
85081;SDS011;75424;50.762;7.178;2024-01-06T05:42:58;13.30;;;6.40;;
85081;SDS011;75424;50.762;7.178;2024-01-06T05:45:23;12.98;;;7.28;;
85081;SDS011;75424;50.762;7.178;2024-01-06T05:47:49;12.70;;;6.33;;
85081;SDS011;75424;50.762;7.178;2024-01-06T05:50:17;12.60;;;6.50;;
85081;SDS011;75424;50.762;7.178;2024-01-06T05:52:43;13.57;;;6.80;;
85081;SDS011;75424;50.762;7.178;2024-01-06T05:55:09;11.43;;;7.30;;
85081;SDS011;75424;50.762;7.178;2024-01-06T05:57:34;14.25;;;6.63;;
85081;SDS011;75424;50.762;7.178;2024-01-06T06:00:00;14.45;;;7.82;;
85081;SDS011;75424;50.762;7.178;2024-01-06T06:02:25;14.88;;;7.90;;
85081;SDS011;75424;50.762;7.178;2024-01-06T06:04:51;15.82;;;7.85;;
85081;SDS011;75424;50.762;7.178;2024-01-06T06:07:17;14.10;;;7.03;;
85081;SDS011;75424;50.762;7.178;2024-01-06T06:09:42;16.55;;;7.00;;
85081;SDS011;75424;50.762;7.178;2024-01-06T06:12:08;16.05;;;7.68;;
85081;SDS011;75424;50.762;7.178;2024-01-06T06:14:33;14.77;;;7.00;;
85081;SDS011;75424;50.762;7.178;2024-01-06T06:16:58;12.33;;;7.47;;
85081;SDS011;75424;50.762;7.178;2024-01-06T06:19:23;14.63;;;7.37;;
85081;SDS011;75424;50.762;7.178;2024-01-06T06:21:49;16.88;;;7.70;;
85081;SDS011;75424;50.762;7.178;2024-01-06T06:24:14;17.40;;;8.77;;
85081;SDS011;75424;50.762;7.178;2024-01-06T06:26:40;16.33;;;7.82;;
85081;SDS011;75424;50.762;7.178;2024-01-06T06:29:05;20.80;;;9.70;;
85081;SDS011;75424;50.762;7.178;2024-01-06T06:31:30;23.13;;;10.33;;
85081;SDS011;75424;50.762;7.178;2024-01-06T06:33:55;20.33;;;10.23;;
85081;SDS011;75424;50.762;7.178;2024-01-06T06:36:21;20.87;;;10.27;;
85081;SDS011;75424;50.762;7.178;2024-01-06T06:38:46;25.65;;;10.77;;
85081;SDS011;75424;50.762;7.178;2024-01-06T06:41:11;28.23;;;11.90;;
85081;SDS011;75424;50.762;7.178;2024-01-06T06:43:37;24.17;;;11.93;;
85081;SDS011;75424;50.762;7.178;2024-01-06T06:46:02;26.92;;;12.38;;
85081;SDS011;75424;50.762;7.178;2024-01-06T06:48:28;22.13;;;12.15;;
85081;SDS011;75424;50.762;7.178;2024-01-06T06:50:53;25.20;;;11.93;;
85081;SDS011;75424;50.762;7.178;2024-01-06T06:53:18;26.63;;;12.73;;
85081;SDS011;75424;50.762;7.178;2024-01-06T06:55:44;27.17;;;13.23;;
85081;SDS011;75424;50.762;7.178;2024-01-06T06:58:09;28.67;;;12.33;;
85081;SDS011;75424;50.762;7.178;2024-01-06T07:00:34;30.17;;;12.38;;
85081;SDS011;75424;50.762;7.178;2024-01-06T07:03:00;25.77;;;12.50;;
85081;SDS011;75424;50.762;7.178;2024-01-06T07:05:25;28.55;;;13.18;;
85081;SDS011;75424;50.762;7.178;2024-01-06T07:07:51;24.80;;;11.33;;
85081;SDS011;75424;50.762;7.178;2024-01-06T07:10:16;27.73;;;13.43;;
85081;SDS011;75424;50.762;7.178;2024-01-06T07:12:42;25.60;;;11.02;;
85081;SDS011;75424;50.762;7.178;2024-01-06T07:15:07;19.80;;;9.53;;
85081;SDS011;75424;50.762;7.178;2024-01-06T07:17:35;24.23;;;10.05;;
85081;SDS011;75424;50.762;7.178;2024-01-06T07:20:00;20.27;;;10.20;;
85081;SDS011;75424;50.762;7.178;2024-01-06T07:22:25;21.13;;;9.87;;
85081;SDS011;75424;50.762;7.178;2024-01-06T07:24:50;20.83;;;8.70;;
85081;SDS011;75424;50.762;7.178;2024-01-06T07:27:16;18.75;;;9.23;;
85081;SDS011;75424;50.762;7.178;2024-01-06T07:29:41;19.45;;;8.95;;
85081;SDS011;75424;50.762;7.178;2024-01-06T07:32:07;22.23;;;9.45;;
85081;SDS011;75424;50.762;7.178;2024-01-06T07:34:32;19.77;;;8.98;;
85081;SDS011;75424;50.762;7.178;2024-01-06T07:36:58;22.38;;;10.52;;
85081;SDS011;75424;50.762;7.178;2024-01-06T07:39:23;22.90;;;11.05;;
85081;SDS011;75424;50.762;7.178;2024-01-06T07:41:49;22.88;;;11.82;;
85081;SDS011;75424;50.762;7.178;2024-01-06T07:44:15;23.20;;;12.43;;
85081;SDS011;75424;50.762;7.178;2024-01-06T07:46:41;27.23;;;11.52;;
85081;SDS011;75424;50.762;7.178;2024-01-06T07:49:07;22.42;;;10.82;;
85081;SDS011;75424;50.762;7.178;2024-01-06T07:51:32;19.70;;;11.27;;
85081;SDS011;75424;50.762;7.178;2024-01-06T07:53:59;20.17;;;10.45;;
85081;SDS011;75424;50.762;7.178;2024-01-06T07:56:25;20.95;;;10.55;;
85081;SDS011;75424;50.762;7.178;2024-01-06T07:58:50;21.42;;;10.73;;
85081;SDS011;75424;50.762;7.178;2024-01-06T08:01:15;19.57;;;9.87;;
85081;SDS011;75424;50.762;7.178;2024-01-06T08:03:41;19.13;;;9.90;;
85081;SDS011;75424;50.762;7.178;2024-01-06T08:06:06;22.30;;;9.73;;
85081;SDS011;75424;50.762;7.178;2024-01-06T08:08:32;17.75;;;8.55;;
85081;SDS011;75424;50.762;7.178;2024-01-06T08:10:57;18.73;;;9.10;;
85081;SDS011;75424;50.762;7.178;2024-01-06T08:13:22;21.17;;;10.02;;
85081;SDS011;75424;50.762;7.178;2024-01-06T08:15:47;19.80;;;9.47;;
85081;SDS011;75424;50.762;7.178;2024-01-06T08:18:13;22.45;;;9.88;;
85081;SDS011;75424;50.762;7.178;2024-01-06T08:20:38;22.98;;;11.05;;
85081;SDS011;75424;50.762;7.178;2024-01-06T08:23:04;20.25;;;10.23;;
85081;SDS011;75424;50.762;7.178;2024-01-06T08:25:29;23.05;;;10.82;;
85081;SDS011;75424;50.762;7.178;2024-01-06T08:27:54;18.80;;;9.23;;
85081;SDS011;75424;50.762;7.178;2024-01-06T08:30:20;17.20;;;9.83;;
85081;SDS011;75424;50.762;7.178;2024-01-06T08:32:45;20.25;;;8.80;;
85081;SDS011;75424;50.762;7.178;2024-01-06T08:35:10;20.60;;;9.67;;
85081;SDS011;75424;50.762;7.178;2024-01-06T08:37:36;14.75;;;7.78;;
85081;SDS011;75424;50.762;7.178;2024-01-06T08:40:01;17.38;;;7.95;;
85081;SDS011;75424;50.762;7.178;2024-01-06T08:42:28;19.60;;;7.90;;
85081;SDS011;75424;50.762;7.178;2024-01-06T08:44:53;16.63;;;7.90;;
85081;SDS011;75424;50.762;7.178;2024-01-06T08:47:18;15.97;;;7.67;;
85081;SDS011;75424;50.762;7.178;2024-01-06T08:49:44;16.57;;;7.57;;
85081;SDS011;75424;50.762;7.178;2024-01-06T08:52:09;20.87;;;7.67;;
85081;SDS011;75424;50.762;7.178;2024-01-06T08:54:34;16.63;;;8.43;;
85081;SDS011;75424;50.762;7.178;2024-01-06T08:57:00;16.23;;;7.10;;
85081;SDS011;75424;50.762;7.178;2024-01-06T08:59:25;13.93;;;6.95;;
85081;SDS011;75424;50.762;7.178;2024-01-06T09:01:51;17.13;;;7.90;;
85081;SDS011;75424;50.762;7.178;2024-01-06T09:04:17;14.88;;;7.80;;
85081;SDS011;75424;50.762;7.178;2024-01-06T09:06:43;16.75;;;7.40;;
85081;SDS011;75424;50.762;7.178;2024-01-06T09:09:08;18.90;;;7.35;;
85081;SDS011;75424;50.762;7.178;2024-01-06T09:11:34;16.27;;;7.35;;
85081;SDS011;75424;50.762;7.178;2024-01-06T09:14:00;15.73;;;7.28;;
85081;SDS011;75424;50.762;7.178;2024-01-06T09:16:26;12.13;;;6.53;;
85081;SDS011;75424;50.762;7.178;2024-01-06T09:18:51;15.38;;;7.07;;
85081;SDS011;75424;50.762;7.178;2024-01-06T09:21:16;17.40;;;8.65;;
85081;SDS011;75424;50.762;7.178;2024-01-06T09:23:42;17.52;;;7.93;;
85081;SDS011;75424;50.762;7.178;2024-01-06T09:26:07;16.25;;;7.70;;
85081;SDS011;75424;50.762;7.178;2024-01-06T09:28:33;17.40;;;7.70;;
85081;SDS011;75424;50.762;7.178;2024-01-06T09:30:58;19.07;;;8.37;;
85081;SDS011;75424;50.762;7.178;2024-01-06T09:33:23;18.83;;;8.47;;
85081;SDS011;75424;50.762;7.178;2024-01-06T09:35:49;20.40;;;9.02;;
85081;SDS011;75424;50.762;7.178;2024-01-06T09:38:15;25.00;;;9.57;;
85081;SDS011;75424;50.762;7.178;2024-01-06T09:40:41;22.70;;;10.60;;
85081;SDS011;75424;50.762;7.178;2024-01-06T09:43:10;23.48;;;10.18;;
85081;SDS011;75424;50.762;7.178;2024-01-06T09:45:36;22.52;;;10.38;;
85081;SDS011;75424;50.762;7.178;2024-01-06T09:48:03;22.80;;;10.20;;
85081;SDS011;75424;50.762;7.178;2024-01-06T09:50:35;24.67;;;9.75;;
85081;SDS011;75424;50.762;7.178;2024-01-06T09:53:01;23.40;;;10.43;;
85081;SDS011;75424;50.762;7.178;2024-01-06T09:55:30;20.50;;;9.10;;
85081;SDS011;75424;50.762;7.178;2024-01-06T09:57:56;24.27;;;9.07;;
85081;SDS011;75424;50.762;7.178;2024-01-06T10:00:21;20.65;;;9.63;;
85081;SDS011;75424;50.762;7.178;2024-01-06T10:02:47;16.33;;;8.68;;
85081;SDS011;75424;50.762;7.178;2024-01-06T10:05:16;20.23;;;9.38;;
85081;SDS011;75424;50.762;7.178;2024-01-06T10:07:45;21.27;;;8.43;;
85081;SDS011;75424;50.762;7.178;2024-01-06T10:10:11;21.83;;;9.65;;
85081;SDS011;75424;50.762;7.178;2024-01-06T10:12:38;17.05;;;9.20;;
85081;SDS011;75424;50.762;7.178;2024-01-06T10:15:07;17.05;;;7.57;;
85081;SDS011;75424;50.762;7.178;2024-01-06T10:17:35;18.52;;;7.72;;
85081;SDS011;75424;50.762;7.178;2024-01-06T10:20:02;15.20;;;7.97;;
85081;SDS011;75424;50.762;7.178;2024-01-06T10:22:32;16.42;;;8.05;;
85081;SDS011;75424;50.762;7.178;2024-01-06T10:24:57;16.75;;;8.68;;
85081;SDS011;75424;50.762;7.178;2024-01-06T10:27:23;16.95;;;9.77;;
85081;SDS011;75424;50.762;7.178;2024-01-06T10:29:48;18.20;;;9.87;;
85081;SDS011;75424;50.762;7.178;2024-01-06T10:32:13;16.10;;;7.77;;
85081;SDS011;75424;50.762;7.178;2024-01-06T10:34:38;23.85;;;10.75;;
85081;SDS011;75424;50.762;7.178;2024-01-06T10:37:04;21.20;;;9.68;;
85081;SDS011;75424;50.762;7.178;2024-01-06T10:39:30;26.08;;;10.70;;
85081;SDS011;75424;50.762;7.178;2024-01-06T10:41:56;22.55;;;10.38;;
85081;SDS011;75424;50.762;7.178;2024-01-06T10:44:22;19.83;;;10.35;;
85081;SDS011;75424;50.762;7.178;2024-01-06T10:46:49;19.73;;;10.02;;
85081;SDS011;75424;50.762;7.178;2024-01-06T10:49:15;26.88;;;11.70;;
85081;SDS011;75424;50.762;7.178;2024-01-06T10:51:42;22.33;;;10.57;;
85081;SDS011;75424;50.762;7.178;2024-01-06T10:54:10;20.90;;;9.10;;
85081;SDS011;75424;50.762;7.178;2024-01-06T10:56:38;21.08;;;9.63;;
85081;SDS011;75424;50.762;7.178;2024-01-06T10:59:06;20.30;;;9.52;;
85081;SDS011;75424;50.762;7.178;2024-01-06T11:01:32;17.80;;;9.02;;
85081;SDS011;75424;50.762;7.178;2024-01-06T11:03:59;19.08;;;8.55;;
85081;SDS011;75424;50.762;7.178;2024-01-06T11:06:25;18.33;;;8.88;;
85081;SDS011;75424;50.762;7.178;2024-01-06T11:09:09;14.70;;;8.35;;
85081;SDS011;75424;50.762;7.178;2024-01-06T11:11:39;15.43;;;8.75;;
85081;SDS011;75424;50.762;7.178;2024-01-06T11:14:24;12.85;;;7.53;;
85081;SDS011;75424;50.762;7.178;2024-01-06T11:16:51;13.43;;;6.68;;
85081;SDS011;75424;50.762;7.178;2024-01-06T11:24:52;12.77;;;8.18;;
85081;SDS011;75424;50.762;7.178;2024-01-06T11:27:22;11.93;;;7.88;;
85081;SDS011;75424;50.762;7.178;2024-01-06T11:29:55;11.85;;;7.50;;
85081;SDS011;75424;50.762;7.178;2024-01-06T11:32:29;14.23;;;8.20;;
85081;SDS011;75424;50.762;7.178;2024-01-06T11:35:04;13.65;;;8.25;;
85081;SDS011;75424;50.762;7.178;2024-01-06T11:37:50;15.63;;;7.45;;
85081;SDS011;75424;50.762;7.178;2024-01-06T11:42:45;8.63;;;5.40;;
85081;SDS011;75424;50.762;7.178;2024-01-06T11:45:21;10.68;;;5.47;;
85081;SDS011;75424;50.762;7.178;2024-01-06T11:47:47;10.07;;;6.53;;
85081;SDS011;75424;50.762;7.178;2024-01-06T11:50:13;11.18;;;6.30;;
85081;SDS011;75424;50.762;7.178;2024-01-06T11:52:39;11.52;;;7.10;;
85081;SDS011;75424;50.762;7.178;2024-01-06T11:55:05;10.15;;;5.90;;
85081;SDS011;75424;50.762;7.178;2024-01-06T11:57:33;12.52;;;5.78;;
85081;SDS011;75424;50.762;7.178;2024-01-06T11:59:58;8.65;;;4.80;;
85081;SDS011;75424;50.762;7.178;2024-01-06T12:02:23;9.40;;;5.17;;
85081;SDS011;75424;50.762;7.178;2024-01-06T12:04:52;9.67;;;5.27;;
85081;SDS011;75424;50.762;7.178;2024-01-06T12:07:21;11.25;;;5.40;;
85081;SDS011;75424;50.762;7.178;2024-01-06T12:09:50;11.25;;;5.22;;
85081;SDS011;75424;50.762;7.178;2024-01-06T12:12:24;13.73;;;7.63;;
85081;SDS011;75424;50.762;7.178;2024-01-06T12:14:50;11.53;;;6.23;;
85081;SDS011;75424;50.762;7.178;2024-01-06T12:17:15;13.70;;;6.60;;
85081;SDS011;75424;50.762;7.178;2024-01-06T12:19:41;19.60;;;10.90;;
85081;SDS011;75424;50.762;7.178;2024-01-06T12:22:11;13.13;;;6.80;;
85081;SDS011;75424;50.762;7.178;2024-01-06T12:24:38;11.65;;;6.68;;
85081;SDS011;75424;50.762;7.178;2024-01-06T12:27:06;16.38;;;8.82;;
85081;SDS011;75424;50.762;7.178;2024-01-06T12:29:38;12.18;;;6.53;;
85081;SDS011;75424;50.762;7.178;2024-01-06T12:32:05;13.48;;;7.28;;
85081;SDS011;75424;50.762;7.178;2024-01-06T12:34:30;13.57;;;6.20;;
85081;SDS011;75424;50.762;7.178;2024-01-06T12:36:55;13.23;;;7.90;;
85081;SDS011;75424;50.762;7.178;2024-01-06T12:39:21;22.23;;;10.75;;
85081;SDS011;75424;50.762;7.178;2024-01-06T12:41:48;21.02;;;10.98;;
85081;SDS011;75424;50.762;7.178;2024-01-06T12:44:15;19.02;;;10.05;;
85081;SDS011;75424;50.762;7.178;2024-01-06T12:46:40;16.07;;;9.10;;
85081;SDS011;75424;50.762;7.178;2024-01-06T12:49:05;19.70;;;10.15;;
85081;SDS011;75424;50.762;7.178;2024-01-06T12:51:31;18.17;;;9.77;;
85081;SDS011;75424;50.762;7.178;2024-01-06T12:53:56;18.42;;;9.68;;
85081;SDS011;75424;50.762;7.178;2024-01-06T12:56:21;18.07;;;8.20;;
85081;SDS011;75424;50.762;7.178;2024-01-06T12:58:47;16.77;;;8.85;;
85081;SDS011;75424;50.762;7.178;2024-01-06T13:01:13;20.42;;;9.20;;
85081;SDS011;75424;50.762;7.178;2024-01-06T13:03:38;14.90;;;7.85;;
85081;SDS011;75424;50.762;7.178;2024-01-06T13:06:04;15.63;;;8.35;;
85081;SDS011;75424;50.762;7.178;2024-01-06T13:08:29;19.92;;;7.35;;
85081;SDS011;75424;50.762;7.178;2024-01-06T13:10:55;15.65;;;7.20;;
85081;SDS011;75424;50.762;7.178;2024-01-06T13:13:21;18.88;;;7.68;;
85081;SDS011;75424;50.762;7.178;2024-01-06T13:15:46;18.77;;;8.80;;
85081;SDS011;75424;50.762;7.178;2024-01-06T13:18:12;18.88;;;9.55;;
85081;SDS011;75424;50.762;7.178;2024-01-06T13:20:38;14.90;;;7.78;;
85081;SDS011;75424;50.762;7.178;2024-01-06T13:23:05;17.55;;;7.70;;
85081;SDS011;75424;50.762;7.178;2024-01-06T13:25:31;16.88;;;7.85;;
85081;SDS011;75424;50.762;7.178;2024-01-06T13:27:57;13.30;;;7.45;;
85081;SDS011;75424;50.762;7.178;2024-01-06T13:30:22;17.70;;;8.68;;
85081;SDS011;75424;50.762;7.178;2024-01-06T13:32:48;14.73;;;7.50;;
85081;SDS011;75424;50.762;7.178;2024-01-06T13:35:15;13.50;;;7.38;;
85081;SDS011;75424;50.762;7.178;2024-01-06T13:37:41;16.85;;;7.47;;
85081;SDS011;75424;50.762;7.178;2024-01-06T13:40:08;15.52;;;8.63;;
85081;SDS011;75424;50.762;7.178;2024-01-06T13:42:34;15.60;;;7.35;;
85081;SDS011;75424;50.762;7.178;2024-01-06T13:45:00;16.67;;;6.63;;
85081;SDS011;75424;50.762;7.178;2024-01-06T13:47:28;16.17;;;7.43;;
85081;SDS011;75424;50.762;7.178;2024-01-06T13:49:54;16.88;;;7.93;;
85081;SDS011;75424;50.762;7.178;2024-01-06T13:52:21;13.90;;;6.50;;
85081;SDS011;75424;50.762;7.178;2024-01-06T13:54:47;19.02;;;9.18;;
85081;SDS011;75424;50.762;7.178;2024-01-06T13:57:12;15.40;;;7.47;;
85081;SDS011;75424;50.762;7.178;2024-01-06T13:59:37;16.90;;;8.70;;
85081;SDS011;75424;50.762;7.178;2024-01-06T14:02:07;15.40;;;7.10;;
85081;SDS011;75424;50.762;7.178;2024-01-06T14:04:33;16.17;;;7.45;;
85081;SDS011;75424;50.762;7.178;2024-01-06T14:06:58;15.07;;;6.55;;
85081;SDS011;75424;50.762;7.178;2024-01-06T14:09:25;17.13;;;6.28;;
85081;SDS011;75424;50.762;7.178;2024-01-06T14:11:50;13.83;;;6.53;;
85081;SDS011;75424;50.762;7.178;2024-01-06T14:14:15;15.03;;;6.07;;
85081;SDS011;75424;50.762;7.178;2024-01-06T14:16:41;14.87;;;6.43;;
85081;SDS011;75424;50.762;7.178;2024-01-06T14:19:08;16.30;;;7.05;;
85081;SDS011;75424;50.762;7.178;2024-01-06T14:21:33;14.00;;;5.93;;
85081;SDS011;75424;50.762;7.178;2024-01-06T14:23:59;15.17;;;6.73;;
85081;SDS011;75424;50.762;7.178;2024-01-06T14:26:24;16.88;;;7.13;;
85081;SDS011;75424;50.762;7.178;2024-01-06T14:28:50;14.73;;;6.03;;
85081;SDS011;75424;50.762;7.178;2024-01-06T14:31:15;17.77;;;6.45;;
85081;SDS011;75424;50.762;7.178;2024-01-06T14:33:40;15.65;;;6.78;;
85081;SDS011;75424;50.762;7.178;2024-01-06T14:36:06;14.93;;;6.23;;
85081;SDS011;75424;50.762;7.178;2024-01-06T14:38:32;15.50;;;6.00;;